sensor_id;sensor_type;location;lat;lon;timestamp;P1;P2;P0
72793;PMS5003;63436;26.334;50.194;2023-04-22T00:00:10;115;112;
72793;PMS5003;63436;26.334;50.194;2023-04-22T00:05:01;114;113;
72793;PMS5003;63436;26.334;50.194;2023-04-22T00:09:56;112;109;
72793;PMS5003;63436;26.334;50.194;2023-04-22T00:12:18;109;108;
72793;PMS5003;63436;26.334;50.194;2023-04-22T00:14:43;118;118;
72793;PMS5003;63436;26.334;50.194;2023-04-22T00:17:08;120;114;
72793;PMS5003;63436;26.334;50.194;2023-04-22T00:19:32;124;119;
72793;PMS5003;63436;26.334;50.194;2023-04-22T00:21:58;116;113;
72793;PMS5003;63436;26.334;50.194;2023-04-22T00:24:26;123;112;
72793;PMS5003;63436;26.334;50.194;2023-04-22T00:26:48;124;121;
72793;PMS5003;63436;26.334;50.194;2023-04-22T00:29:14;119;116;
72793;PMS5003;63436;26.334;50.194;2023-04-22T00:31:41;120;119;
72793;PMS5003;63436;26.334;50.194;2023-04-22T00:34:05;114;113;
72793;PMS5003;63436;26.334;50.194;2023-04-22T00:36:31;107;107;
72793;PMS5003;63436;26.334;50.194;2023-04-22T00:38:57;114;112;
72793;PMS5003;63436;26.334;50.194;2023-04-22T00:41:26;118;117;
72793;PMS5003;63436;26.334;50.194;2023-04-22T00:43:49;121;117;
72793;PMS5003;63436;26.334;50.194;2023-04-22T00:46:15;122;119;
72793;PMS5003;63436;26.334;50.194;2023-04-22T00:48:39;122;117;
72793;PMS5003;63436;26.334;50.194;2023-04-22T00:51:06;116;115;
72793;PMS5003;63436;26.334;50.194;2023-04-22T00:53:33;120;118;
72793;PMS5003;63436;26.334;50.194;2023-04-22T00:55:57;120;120;
72793;PMS5003;63436;26.334;50.194;2023-04-22T00:58:21;125;119;
72793;PMS5003;63436;26.334;50.194;2023-04-22T01:00:47;125;121;
72793;PMS5003;63436;26.334;50.194;2023-04-22T01:03:11;123;122;
72793;PMS5003;63436;26.334;50.194;2023-04-22T01:05:36;120;119;
72793;PMS5003;63436;26.334;50.194;2023-04-22T01:08:03;126;118;
72793;PMS5003;63436;26.334;50.194;2023-04-22T01:10:26;131;126;
72793;PMS5003;63436;26.334;50.194;2023-04-22T01:12:53;128;126;
72793;PMS5003;63436;26.334;50.194;2023-04-22T01:15:17;118;117;
72793;PMS5003;63436;26.334;50.194;2023-04-22T01:17:42;121;121;
72793;PMS5003;63436;26.334;50.194;2023-04-22T01:20:07;123;120;
72793;PMS5003;63436;26.334;50.194;2023-04-22T01:22:34;123;123;
72793;PMS5003;63436;26.334;50.194;2023-04-22T01:24:59;125;122;
72793;PMS5003;63436;26.334;50.194;2023-04-22T01:27:25;124;122;
72793;PMS5003;63436;26.334;50.194;2023-04-22T01:29:50;128;127;
72793;PMS5003;63436;26.334;50.194;2023-04-22T01:32:14;131;127;
72793;PMS5003;63436;26.334;50.194;2023-04-22T01:34:40;122;120;
72793;PMS5003;63436;26.334;50.194;2023-04-22T01:37:06;127;126;
72793;PMS5003;63436;26.334;50.194;2023-04-22T01:39:30;124;121;
72793;PMS5003;63436;26.334;50.194;2023-04-22T01:41:55;124;122;
72793;PMS5003;63436;26.334;50.194;2023-04-22T01:44:22;135;130;
72793;PMS5003;63436;26.334;50.194;2023-04-22T01:46:47;128;124;
72793;PMS5003;63436;26.334;50.194;2023-04-22T01:49:13;128;126;
72793;PMS5003;63436;26.334;50.194;2023-04-22T01:51:39;123;122;
72793;PMS5003;63436;26.334;50.194;2023-04-22T01:54:04;130;125;
72793;PMS5003;63436;26.334;50.194;2023-04-22T01:56:29;126;122;
72793;PMS5003;63436;26.334;50.194;2023-04-22T01:58:55;132;130;
72793;PMS5003;63436;26.334;50.194;2023-04-22T02:01:20;133;122;
72793;PMS5003;63436;26.334;50.194;2023-04-22T02:03:45;118;117;
72793;PMS5003;63436;26.334;50.194;2023-04-22T02:06:11;120;120;
72793;PMS5003;63436;26.334;50.194;2023-04-22T02:08:37;130;127;
72793;PMS5003;63436;26.334;50.194;2023-04-22T02:11:06;116;116;
72793;PMS5003;63436;26.334;50.194;2023-04-22T02:15:55;137;129;
72793;PMS5003;63436;26.334;50.194;2023-04-22T02:18:20;132;128;
72793;PMS5003;63436;26.334;50.194;2023-04-22T02:20:46;124;122;
72793;PMS5003;63436;26.334;50.194;2023-04-22T02:23:10;127;123;
72793;PMS5003;63436;26.334;50.194;2023-04-22T02:25:37;128;123;
72793;PMS5003;63436;26.334;50.194;2023-04-22T02:28:03;135;130;
72793;PMS5003;63436;26.334;50.194;2023-04-22T02:30:27;132;127;
72793;PMS5003;63436;26.334;50.194;2023-04-22T02:32:56;129;126;
72793;PMS5003;63436;26.334;50.194;2023-04-22T02:35:22;130;127;
72793;PMS5003;63436;26.334;50.194;2023-04-22T02:37:43;130;126;
72793;PMS5003;63436;26.334;50.194;2023-04-22T02:40:10;129;126;
72793;PMS5003;63436;26.334;50.194;2023-04-22T02:42:34;128;125;
72793;PMS5003;63436;26.334;50.194;2023-04-22T02:45:01;134;133;
72793;PMS5003;63436;26.334;50.194;2023-04-22T02:47:25;125;124;
72793;PMS5003;63436;26.334;50.194;2023-04-22T02:49:54;135;128;
72793;PMS5003;63436;26.334;50.194;2023-04-22T02:52:16;127;127;
72793;PMS5003;63436;26.334;50.194;2023-04-22T02:54:42;131;128;
72793;PMS5003;63436;26.334;50.194;2023-04-22T02:57:07;127;125;
72793;PMS5003;63436;26.334;50.194;2023-04-22T02:59:34;127;123;
72793;PMS5003;63436;26.334;50.194;2023-04-22T03:01:58;135;134;
72793;PMS5003;63436;26.334;50.194;2023-04-22T03:04:22;136;131;
72793;PMS5003;63436;26.334;50.194;2023-04-22T03:06:47;133;129;
72793;PMS5003;63436;26.334;50.194;2023-04-22T03:09:14;132;129;
72793;PMS5003;63436;26.334;50.194;2023-04-22T03:11:39;122;119;
72793;PMS5003;63436;26.334;50.194;2023-04-22T03:14:04;122;120;
72793;PMS5003;63436;26.334;50.194;2023-04-22T03:16:30;123;121;
72793;PMS5003;63436;26.334;50.194;2023-04-22T03:18:55;122;119;
72793;PMS5003;63436;26.334;50.194;2023-04-22T03:21:21;125;124;
72793;PMS5003;63436;26.334;50.194;2023-04-22T03:23:47;127;123;
72793;PMS5003;63436;26.334;50.194;2023-04-22T03:26:12;120;120;
72793;PMS5003;63436;26.334;50.194;2023-04-22T03:28:38;124;120;
72793;PMS5003;63436;26.334;50.194;2023-04-22T03:31:04;135;132;
72793;PMS5003;63436;26.334;50.194;2023-04-22T03:33:28;127;122;
72793;PMS5003;63436;26.334;50.194;2023-04-22T03:35:54;119;119;
72793;PMS5003;63436;26.334;50.194;2023-04-22T03:38:19;129;127;
72793;PMS5003;63436;26.334;50.194;2023-04-22T03:40:46;127;125;
72793;PMS5003;63436;26.334;50.194;2023-04-22T03:43:10;122;116;
72793;PMS5003;63436;26.334;50.194;2023-04-22T03:45:36;114;113;
72793;PMS5003;63436;26.334;50.194;2023-04-22T03:48:05;119;116;
72793;PMS5003;63436;26.334;50.194;2023-04-22T03:50:27;119;114;
72793;PMS5003;63436;26.334;50.194;2023-04-22T03:52:52;122;118;
72793;PMS5003;63436;26.334;50.194;2023-04-22T03:55:18;123;122;
72793;PMS5003;63436;26.334;50.194;2023-04-22T03:57:43;115;113;
72793;PMS5003;63436;26.334;50.194;2023-04-22T04:00:09;123;121;
72793;PMS5003;63436;26.334;50.194;2023-04-22T04:02:34;111;110;
72793;PMS5003;63436;26.334;50.194;2023-04-22T04:05:00;107;107;
72793;PMS5003;63436;26.334;50.194;2023-04-22T04:07:26;114;108;
72793;PMS5003;63436;26.334;50.194;2023-04-22T04:09:51;112;108;
72793;PMS5003;63436;26.334;50.194;2023-04-22T04:12:16;113;110;
72793;PMS5003;63436;26.334;50.194;2023-04-22T04:14:42;113;109;
72793;PMS5003;63436;26.334;50.194;2023-04-22T04:17:07;110;109;
72793;PMS5003;63436;26.334;50.194;2023-04-22T04:19:35;108;105;
72793;PMS5003;63436;26.334;50.194;2023-04-22T04:22:00;108;107;
72793;PMS5003;63436;26.334;50.194;2023-04-22T04:24:24;114;109;
72793;PMS5003;63436;26.334;50.194;2023-04-22T04:26:52;105;104;
72793;PMS5003;63436;26.334;50.194;2023-04-22T04:29:15;99;98;
72793;PMS5003;63436;26.334;50.194;2023-04-22T04:31:41;101;98;
72793;PMS5003;63436;26.334;50.194;2023-04-22T04:34:09;99;98;
72793;PMS5003;63436;26.334;50.194;2023-04-22T04:36:33;90;88;
72793;PMS5003;63436;26.334;50.194;2023-04-22T04:38:58;91;88;
72793;PMS5003;63436;26.334;50.194;2023-04-22T04:41:24;92;92;
72793;PMS5003;63436;26.334;50.194;2023-04-22T04:43:49;93;92;
72793;PMS5003;63436;26.334;50.194;2023-04-22T04:46:16;97;93;
72793;PMS5003;63436;26.334;50.194;2023-04-22T04:48:42;98;98;
72793;PMS5003;63436;26.334;50.194;2023-04-22T04:51:06;98;97;
72793;PMS5003;63436;26.334;50.194;2023-04-22T04:53:31;88;88;
72793;PMS5003;63436;26.334;50.194;2023-04-22T04:55:56;92;90;
72793;PMS5003;63436;26.334;50.194;2023-04-22T04:58:23;93;90;
72793;PMS5003;63436;26.334;50.194;2023-04-22T05:00:47;96;96;
72793;PMS5003;63436;26.334;50.194;2023-04-22T05:03:09;97;96;
72793;PMS5003;63436;26.334;50.194;2023-04-22T05:05:40;98;97;
72793;PMS5003;63436;26.334;50.194;2023-04-22T05:08:03;97;93;
72793;PMS5003;63436;26.334;50.194;2023-04-22T05:10:28;101;96;
72793;PMS5003;63436;26.334;50.194;2023-04-22T05:12:55;98;97;
72793;PMS5003;63436;26.334;50.194;2023-04-22T05:15:20;96;95;
72793;PMS5003;63436;26.334;50.194;2023-04-22T05:17:45;96;96;
72793;PMS5003;63436;26.334;50.194;2023-04-22T05:20:11;100;97;
72793;PMS5003;63436;26.334;50.194;2023-04-22T05:22:37;97;95;
72793;PMS5003;63436;26.334;50.194;2023-04-22T05:25:03;92;90;
72793;PMS5003;63436;26.334;50.194;2023-04-22T05:27:29;102;101;
72793;PMS5003;63436;26.334;50.194;2023-04-22T05:29:53;100;99;
72793;PMS5003;63436;26.334;50.194;2023-04-22T05:32:19;99;97;
72793;PMS5003;63436;26.334;50.194;2023-04-22T05:34:44;99;95;
72793;PMS5003;63436;26.334;50.194;2023-04-22T05:37:10;104;99;
72793;PMS5003;63436;26.334;50.194;2023-04-22T05:39:35;99;98;
72793;PMS5003;63436;26.334;50.194;2023-04-22T05:42:04;99;99;
72793;PMS5003;63436;26.334;50.194;2023-04-22T05:44:27;96;95;
72793;PMS5003;63436;26.334;50.194;2023-04-22T05:46:53;96;94;
72793;PMS5003;63436;26.334;50.194;2023-04-22T05:49:18;98;95;
72793;PMS5003;63436;26.334;50.194;2023-04-22T05:51:43;93;91;
72793;PMS5003;63436;26.334;50.194;2023-04-22T05:54:09;109;104;
72793;PMS5003;63436;26.334;50.194;2023-04-22T05:56:36;96;95;
72793;PMS5003;63436;26.334;50.194;2023-04-22T05:59:00;106;103;
72793;PMS5003;63436;26.334;50.194;2023-04-22T06:01:26;96;96;
72793;PMS5003;63436;26.334;50.194;2023-04-22T06:03:54;102;96;
72793;PMS5003;63436;26.334;50.194;2023-04-22T06:06:17;104;102;
72793;PMS5003;63436;26.334;50.194;2023-04-22T06:08:46;99;98;
72793;PMS5003;63436;26.334;50.194;2023-04-22T06:11:09;98;97;
72793;PMS5003;63436;26.334;50.194;2023-04-22T06:13:34;97;96;
72793;PMS5003;63436;26.334;50.194;2023-04-22T06:15:58;97;92;
72793;PMS5003;63436;26.334;50.194;2023-04-22T06:18:25;100;97;
72793;PMS5003;63436;26.334;50.194;2023-04-22T06:20:53;106;103;
72793;PMS5003;63436;26.334;50.194;2023-04-22T06:23:15;101;95;
72793;PMS5003;63436;26.334;50.194;2023-04-22T06:25:42;101;99;
72793;PMS5003;63436;26.334;50.194;2023-04-22T06:28:08;92;92;
72793;PMS5003;63436;26.334;50.194;2023-04-22T06:30:32;94;94;
72793;PMS5003;63436;26.334;50.194;2023-04-22T06:32:59;99;95;
72793;PMS5003;63436;26.334;50.194;2023-04-22T06:35:23;99;93;
72793;PMS5003;63436;26.334;50.194;2023-04-22T06:37:49;95;95;
72793;PMS5003;63436;26.334;50.194;2023-04-22T06:40:14;97;93;
72793;PMS5003;63436;26.334;50.194;2023-04-22T06:42:40;99;96;
72793;PMS5003;63436;26.334;50.194;2023-04-22T06:45:05;87;84;
72793;PMS5003;63436;26.334;50.194;2023-04-22T06:47:31;94;89;
72793;PMS5003;63436;26.334;50.194;2023-04-22T06:49:54;93;91;
72793;PMS5003;63436;26.334;50.194;2023-04-22T06:52:21;93;92;
72793;PMS5003;63436;26.334;50.194;2023-04-22T06:54:46;90;88;
72793;PMS5003;63436;26.334;50.194;2023-04-22T06:57:12;87;85;
72793;PMS5003;63436;26.334;50.194;2023-04-22T06:59:39;92;89;
72793;PMS5003;63436;26.334;50.194;2023-04-22T07:02:05;90;87;
72793;PMS5003;63436;26.334;50.194;2023-04-22T07:04:29;85;85;
72793;PMS5003;63436;26.334;50.194;2023-04-22T07:06:54;84;84;
72793;PMS5003;63436;26.334;50.194;2023-04-22T07:09:19;88;84;
72793;PMS5003;63436;26.334;50.194;2023-04-22T07:11:44;83;82;
72793;PMS5003;63436;26.334;50.194;2023-04-22T07:14:11;86;83;
72793;PMS5003;63436;26.334;50.194;2023-04-22T07:16:37;82;82;
72793;PMS5003;63436;26.334;50.194;2023-04-22T07:19:01;85;84;
72793;PMS5003;63436;26.334;50.194;2023-04-22T07:21:27;88;84;
72793;PMS5003;63436;26.334;50.194;2023-04-22T07:23:55;84;80;
72793;PMS5003;63436;26.334;50.194;2023-04-22T07:26:17;77;77;
72793;PMS5003;63436;26.334;50.194;2023-04-22T07:28:43;87;83;
72793;PMS5003;63436;26.334;50.194;2023-04-22T07:31:07;81;81;
72793;PMS5003;63436;26.334;50.194;2023-04-22T07:33:34;85;82;
72793;PMS5003;63436;26.334;50.194;2023-04-22T07:36:00;82;81;
72793;PMS5003;63436;26.334;50.194;2023-04-22T07:38:25;86;84;
72793;PMS5003;63436;26.334;50.194;2023-04-22T07:40:49;87;83;
72793;PMS5003;63436;26.334;50.194;2023-04-22T07:43:17;81;79;
72793;PMS5003;63436;26.334;50.194;2023-04-22T07:45:41;81;79;
72793;PMS5003;63436;26.334;50.194;2023-04-22T07:48:06;86;84;
72793;PMS5003;63436;26.334;50.194;2023-04-22T07:50:32;80;78;
72793;PMS5003;63436;26.334;50.194;2023-04-22T07:53:02;73;73;
72793;PMS5003;63436;26.334;50.194;2023-04-22T07:55:24;84;79;
72793;PMS5003;63436;26.334;50.194;2023-04-22T07:57:49;86;81;
72793;PMS5003;63436;26.334;50.194;2023-04-22T08:00:15;84;80;
72793;PMS5003;63436;26.334;50.194;2023-04-22T08:02:40;86;84;
72793;PMS5003;63436;26.334;50.194;2023-04-22T08:05:06;80;80;
72793;PMS5003;63436;26.334;50.194;2023-04-22T08:07:31;83;81;
72793;PMS5003;63436;26.334;50.194;2023-04-22T08:09:56;83;78;
72793;PMS5003;63436;26.334;50.194;2023-04-22T08:12:22;82;80;
72793;PMS5003;63436;26.334;50.194;2023-04-22T08:14:48;84;82;
72793;PMS5003;63436;26.334;50.194;2023-04-22T08:17:14;81;79;
72793;PMS5003;63436;26.334;50.194;2023-04-22T08:19:39;83;81;
72793;PMS5003;63436;26.334;50.194;2023-04-22T08:22:04;79;76;
72793;PMS5003;63436;26.334;50.194;2023-04-22T08:24:30;80;77;
72793;PMS5003;63436;26.334;50.194;2023-04-22T08:26:56;84;82;
72793;PMS5003;63436;26.334;50.194;2023-04-22T08:29:21;79;77;
72793;PMS5003;63436;26.334;50.194;2023-04-22T08:31:47;87;82;
72793;PMS5003;63436;26.334;50.194;2023-04-22T08:34:11;76;74;
72793;PMS5003;63436;26.334;50.194;2023-04-22T08:36:38;90;86;
72793;PMS5003;63436;26.334;50.194;2023-04-22T08:39:03;78;77;
72793;PMS5003;63436;26.334;50.194;2023-04-22T08:41:28;82;80;
72793;PMS5003;63436;26.334;50.194;2023-04-22T08:43:54;78;77;
72793;PMS5003;63436;26.334;50.194;2023-04-22T08:46:18;81;81;
72793;PMS5003;63436;26.334;50.194;2023-04-22T08:48:46;99;95;
72793;PMS5003;63436;26.334;50.194;2023-04-22T08:51:10;114;111;
72793;PMS5003;63436;26.334;50.194;2023-04-22T08:53:34;113;110;
72793;PMS5003;63436;26.334;50.194;2023-04-22T08:56:01;113;113;
72793;PMS5003;63436;26.334;50.194;2023-04-22T08:58:26;112;109;
72793;PMS5003;63436;26.334;50.194;2023-04-22T09:00:53;106;101;
72793;PMS5003;63436;26.334;50.194;2023-04-22T09:03:17;118;115;
72793;PMS5003;63436;26.334;50.194;2023-04-22T09:05:42;114;110;
72793;PMS5003;63436;26.334;50.194;2023-04-22T09:08:08;122;120;
72793;PMS5003;63436;26.334;50.194;2023-04-22T09:10:34;117;116;
72793;PMS5003;63436;26.334;50.194;2023-04-22T09:13:00;118;118;
72793;PMS5003;63436;26.334;50.194;2023-04-22T09:15:24;124;120;
72793;PMS5003;63436;26.334;50.194;2023-04-22T09:17:50;118;114;
72793;PMS5003;63436;26.334;50.194;2023-04-22T09:20:14;120;119;
72793;PMS5003;63436;26.334;50.194;2023-04-22T09:22:40;116;112;
72793;PMS5003;63436;26.334;50.194;2023-04-22T09:25:05;114;112;
72793;PMS5003;63436;26.334;50.194;2023-04-22T09:27:29;109;106;
72793;PMS5003;63436;26.334;50.194;2023-04-22T09:29:58;114;112;
72793;PMS5003;63436;26.334;50.194;2023-04-22T09:32:22;109;107;
72793;PMS5003;63436;26.334;50.194;2023-04-22T09:34:48;110;107;
72793;PMS5003;63436;26.334;50.194;2023-04-22T09:37:13;123;121;
72793;PMS5003;63436;26.334;50.194;2023-04-22T09:39:37;117;115;
72793;PMS5003;63436;26.334;50.194;2023-04-22T09:42:03;111;110;
72793;PMS5003;63436;26.334;50.194;2023-04-22T09:44:30;116;111;
72793;PMS5003;63436;26.334;50.194;2023-04-22T09:46:55;113;109;
72793;PMS5003;63436;26.334;50.194;2023-04-22T09:49:19;113;111;
72793;PMS5003;63436;26.334;50.194;2023-04-22T09:51:45;120;116;
72793;PMS5003;63436;26.334;50.194;2023-04-22T09:54:09;116;110;
72793;PMS5003;63436;26.334;50.194;2023-04-22T09:56:41;119;118;
72793;PMS5003;63436;26.334;50.194;2023-04-22T09:59:00;122;121;
72793;PMS5003;63436;26.334;50.194;2023-04-22T10:01:33;112;108;
72793;PMS5003;63436;26.334;50.194;2023-04-22T10:03:50;119;115;
72793;PMS5003;63436;26.334;50.194;2023-04-22T10:06:16;117;113;
72793;PMS5003;63436;26.334;50.194;2023-04-22T10:08:42;116;112;
72793;PMS5003;63436;26.334;50.194;2023-04-22T10:11:07;119;115;
72793;PMS5003;63436;26.334;50.194;2023-04-22T10:13:31;118;114;
72793;PMS5003;63436;26.334;50.194;2023-04-22T10:16:03;118;115;
72793;PMS5003;63436;26.334;50.194;2023-04-22T10:18:22;123;116;
72793;PMS5003;63436;26.334;50.194;2023-04-22T10:20:49;111;107;
72793;PMS5003;63436;26.334;50.194;2023-04-22T10:23:14;121;117;
72793;PMS5003;63436;26.334;50.194;2023-04-22T10:25:41;117;115;
72793;PMS5003;63436;26.334;50.194;2023-04-22T10:28:06;119;112;
72793;PMS5003;63436;26.334;50.194;2023-04-22T10:30:32;117;112;
72793;PMS5003;63436;26.334;50.194;2023-04-22T10:32:55;118;114;
72793;PMS5003;63436;26.334;50.194;2023-04-22T10:35:25;117;114;
72793;PMS5003;63436;26.334;50.194;2023-04-22T10:37:47;118;117;
72793;PMS5003;63436;26.334;50.194;2023-04-22T10:40:14;121;119;
72793;PMS5003;63436;26.334;50.194;2023-04-22T10:42:38;119;115;
72793;PMS5003;63436;26.334;50.194;2023-04-22T10:45:05;122;119;
72793;PMS5003;63436;26.334;50.194;2023-04-22T10:47:29;127;122;
72793;PMS5003;63436;26.334;50.194;2023-04-22T10:57:12;112;111;
72793;PMS5003;63436;26.334;50.194;2023-04-22T10:59:40;118;117;
72793;PMS5003;63436;26.334;50.194;2023-04-22T11:02:03;124;121;
72793;PMS5003;63436;26.334;50.194;2023-04-22T11:04:28;122;120;
72793;PMS5003;63436;26.334;50.194;2023-04-22T11:09:18;123;121;
72793;PMS5003;63436;26.334;50.194;2023-04-22T11:11:46;128;125;
72793;PMS5003;63436;26.334;50.194;2023-04-22T11:14:12;124;120;
72793;PMS5003;63436;26.334;50.194;2023-04-22T11:16:36;132;128;
72793;PMS5003;63436;26.334;50.194;2023-04-22T11:19:01;133;125;
72793;PMS5003;63436;26.334;50.194;2023-04-22T11:21:26;124;123;
72793;PMS5003;63436;26.334;50.194;2023-04-22T11:23:52;126;121;
72793;PMS5003;63436;26.334;50.194;2023-04-22T11:26:30;113;111;
72793;PMS5003;63436;26.334;50.194;2023-04-22T11:31:08;124;118;
72793;PMS5003;63436;26.334;50.194;2023-04-22T11:33:33;116;115;
72793;PMS5003;63436;26.334;50.194;2023-04-22T11:35:59;117;113;
72793;PMS5003;63436;26.334;50.194;2023-04-22T11:38:24;118;116;
72793;PMS5003;63436;26.334;50.194;2023-04-22T11:40:49;112;111;
72793;PMS5003;63436;26.334;50.194;2023-04-22T11:43:15;118;113;
72793;PMS5003;63436;26.334;50.194;2023-04-22T11:45:39;117;112;
72793;PMS5003;63436;26.334;50.194;2023-04-22T11:48:06;119;116;
72793;PMS5003;63436;26.334;50.194;2023-04-22T11:50:31;122;120;
72793;PMS5003;63436;26.334;50.194;2023-04-22T11:53:02;122;121;
72793;PMS5003;63436;26.334;50.194;2023-04-22T11:55:23;125;121;
72793;PMS5003;63436;26.334;50.194;2023-04-22T12:00:14;121;119;
72793;PMS5003;63436;26.334;50.194;2023-04-22T12:02:40;119;116;
72793;PMS5003;63436;26.334;50.194;2023-04-22T12:05:05;125;119;
72793;PMS5003;63436;26.334;50.194;2023-04-22T12:07:30;121;117;
72793;PMS5003;63436;26.334;50.194;2023-04-22T12:09:56;120;118;
72793;PMS5003;63436;26.334;50.194;2023-04-22T12:12:20;130;129;
72793;PMS5003;63436;26.334;50.194;2023-04-22T12:14:47;128;123;
72793;PMS5003;63436;26.334;50.194;2023-04-22T12:17:11;113;109;
72793;PMS5003;63436;26.334;50.194;2023-04-22T12:19:36;131;123;
72793;PMS5003;63436;26.334;50.194;2023-04-22T12:22:03;128;124;
72793;PMS5003;63436;26.334;50.194;2023-04-22T12:24:29;116;111;
72793;PMS5003;63436;26.334;50.194;2023-04-22T12:26:57;129;124;
72793;PMS5003;63436;26.334;50.194;2023-04-22T12:31:44;127;124;
72793;PMS5003;63436;26.334;50.194;2023-04-22T12:34:10;119;118;
72793;PMS5003;63436;26.334;50.194;2023-04-22T12:36:36;123;117;
72793;PMS5003;63436;26.334;50.194;2023-04-22T12:39:01;129;129;
72793;PMS5003;63436;26.334;50.194;2023-04-22T12:41:29;115;111;
72793;PMS5003;63436;26.334;50.194;2023-04-22T12:43:57;121;114;
72793;PMS5003;63436;26.334;50.194;2023-04-22T12:46:18;131;126;
72793;PMS5003;63436;26.334;50.194;2023-04-22T12:48:45;122;120;
72793;PMS5003;63436;26.334;50.194;2023-04-22T12:51:11;131;126;
72793;PMS5003;63436;26.334;50.194;2023-04-22T12:53:36;122;122;
72793;PMS5003;63436;26.334;50.194;2023-04-22T12:56:02;120;117;
72793;PMS5003;63436;26.334;50.194;2023-04-22T12:58:30;128;127;
72793;PMS5003;63436;26.334;50.194;2023-04-22T13:00:55;124;124;
72793;PMS5003;63436;26.334;50.194;2023-04-22T13:03:16;125;124;
72793;PMS5003;63436;26.334;50.194;2023-04-22T13:05:43;127;125;
72793;PMS5003;63436;26.334;50.194;2023-04-22T13:08:07;133;126;
72793;PMS5003;63436;26.334;50.194;2023-04-22T13:10:33;128;124;
72793;PMS5003;63436;26.334;50.194;2023-04-22T13:13:01;116;115;
72793;PMS5003;63436;26.334;50.194;2023-04-22T13:15:25;120;118;
72793;PMS5003;63436;26.334;50.194;2023-04-22T13:17:49;118;115;
72793;PMS5003;63436;26.334;50.194;2023-04-22T13:20:16;123;121;
72793;PMS5003;63436;26.334;50.194;2023-04-22T13:22:40;121;118;
72793;PMS5003;63436;26.334;50.194;2023-04-22T13:25:06;123;119;
72793;PMS5003;63436;26.334;50.194;2023-04-22T13:27:31;124;117;
72793;PMS5003;63436;26.334;50.194;2023-04-22T13:29:57;123;123;
72793;PMS5003;63436;26.334;50.194;2023-04-22T13:32:22;119;116;
72793;PMS5003;63436;26.334;50.194;2023-04-22T13:34:47;122;119;
72793;PMS5003;63436;26.334;50.194;2023-04-22T13:37:12;115;109;
72793;PMS5003;63436;26.334;50.194;2023-04-22T13:39:37;118;115;
72793;PMS5003;63436;26.334;50.194;2023-04-22T13:42:04;117;114;
72793;PMS5003;63436;26.334;50.194;2023-04-22T13:44:28;121;115;
72793;PMS5003;63436;26.334;50.194;2023-04-22T13:46:54;114;109;
72793;PMS5003;63436;26.334;50.194;2023-04-22T13:49:19;119;118;
72793;PMS5003;63436;26.334;50.194;2023-04-22T13:51:45;114;114;
72793;PMS5003;63436;26.334;50.194;2023-04-22T13:54:10;115;113;
72793;PMS5003;63436;26.334;50.194;2023-04-22T13:56:37;124;121;
72793;PMS5003;63436;26.334;50.194;2023-04-22T13:59:01;117;116;
72793;PMS5003;63436;26.334;50.194;2023-04-22T14:01:27;115;112;
72793;PMS5003;63436;26.334;50.194;2023-04-22T14:03:54;106;106;
72793;PMS5003;63436;26.334;50.194;2023-04-22T14:06:20;114;110;
72793;PMS5003;63436;26.334;50.194;2023-04-22T14:08:44;107;107;
72793;PMS5003;63436;26.334;50.194;2023-04-22T14:11:11;119;115;
72793;PMS5003;63436;26.334;50.194;2023-04-22T14:13:37;120;117;
72793;PMS5003;63436;26.334;50.194;2023-04-22T14:16:03;115;111;
72793;PMS5003;63436;26.334;50.194;2023-04-22T14:18:28;115;113;
72793;PMS5003;63436;26.334;50.194;2023-04-22T14:20:55;115;111;
72793;PMS5003;63436;26.334;50.194;2023-04-22T14:23:18;117;116;
72793;PMS5003;63436;26.334;50.194;2023-04-22T14:25:44;121;119;
72793;PMS5003;63436;26.334;50.194;2023-04-22T14:28:09;120;116;
72793;PMS5003;63436;26.334;50.194;2023-04-22T14:30:34;121;118;
72793;PMS5003;63436;26.334;50.194;2023-04-22T14:32:59;117;116;
72793;PMS5003;63436;26.334;50.194;2023-04-22T14:35:24;115;111;
72793;PMS5003;63436;26.334;50.194;2023-04-22T14:37:51;122;120;
72793;PMS5003;63436;26.334;50.194;2023-04-22T14:40:17;121;119;
72793;PMS5003;63436;26.334;50.194;2023-04-22T14:42:40;111;110;
72793;PMS5003;63436;26.334;50.194;2023-04-22T14:45:08;124;119;
72793;PMS5003;63436;26.334;50.194;2023-04-22T14:47:33;114;110;
72793;PMS5003;63436;26.334;50.194;2023-04-22T14:49:58;118;118;
72793;PMS5003;63436;26.334;50.194;2023-04-22T14:52:24;119;115;
72793;PMS5003;63436;26.334;50.194;2023-04-22T14:54:50;116;115;
72793;PMS5003;63436;26.334;50.194;2023-04-22T14:57:15;120;120;
72793;PMS5003;63436;26.334;50.194;2023-04-22T14:59:41;122;122;
72793;PMS5003;63436;26.334;50.194;2023-04-22T15:02:05;118;117;
72793;PMS5003;63436;26.334;50.194;2023-04-22T15:04:30;119;117;
72793;PMS5003;63436;26.334;50.194;2023-04-22T15:06:56;128;128;
72793;PMS5003;63436;26.334;50.194;2023-04-22T15:09:22;124;121;
72793;PMS5003;63436;26.334;50.194;2023-04-22T15:11:49;121;119;
72793;PMS5003;63436;26.334;50.194;2023-04-22T15:14:14;133;125;
72793;PMS5003;63436;26.334;50.194;2023-04-22T15:16:38;119;118;
72793;PMS5003;63436;26.334;50.194;2023-04-22T15:19:04;124;123;
72793;PMS5003;63436;26.334;50.194;2023-04-22T15:21:28;125;122;
72793;PMS5003;63436;26.334;50.194;2023-04-22T15:23:56;125;124;
72793;PMS5003;63436;26.334;50.194;2023-04-22T15:26:19;133;127;
72793;PMS5003;63436;26.334;50.194;2023-04-22T15:28:44;123;122;
72793;PMS5003;63436;26.334;50.194;2023-04-22T15:31:11;128;126;
72793;PMS5003;63436;26.334;50.194;2023-04-22T15:33:35;125;124;
72793;PMS5003;63436;26.334;50.194;2023-04-22T15:36:01;138;131;
72793;PMS5003;63436;26.334;50.194;2023-04-22T15:38:28;123;120;
72793;PMS5003;63436;26.334;50.194;2023-04-22T15:40:53;124;122;
72793;PMS5003;63436;26.334;50.194;2023-04-22T15:43:17;135;134;
72793;PMS5003;63436;26.334;50.194;2023-04-22T15:45:43;134;131;
72793;PMS5003;63436;26.334;50.194;2023-04-22T15:48:09;124;120;
72793;PMS5003;63436;26.334;50.194;2023-04-22T15:50:35;118;118;